»·PEaware :: SWA377 KSFO-KSLC

SWA377 :: KSFO-KSLC

FLIGHT INFORMATION

Flight Status: Arrived
Operator:
Southwest Airlines
More flights by this operator :: More flights under this callsign
Pilot: Ben F. (13029)
Aircraft: BOEING 737-800
(B738)
More flights by this aircraft type
Origin: KSFO San Francisco Intl
United States
Destination: KSLC Salt Lake City Intl
United States
More flights between these airports :: More routes between these airports
Route: +TRUKN2 MOGEE Q124 BVL WAATS5
File this flight plan on PilotEdge
Remarks: RMK / SIMBRIEF
Altitude:
(Current/Filed)
35,000ft
Speed:
(Current/Filed)
455kts
Departed: 22-Mar-20 01:37 PM
Arrived: 22-Mar-20 03:01 PM
Distance/Time
Traveled:
519nm/1:24
Distance/Time
To Go:
Arrived

Flight Plot

Page will automatically refresh every two minutes.

Flight plan parsing failed; only flown route is shown


Map Options




Map Legend


Flown Route
Filed Route
Departure Airport
Arrival Airport
Navaid (VOR, NDB)
Fix

Horizontal Profiles

Position Reports

Time Latitude Longitude Heading Altitude Ground
Speed
22-Mar-20 13:08 37.612829 -122.383174 296 33ft 0kts
22-Mar-20 13:09 37.612829 -122.383174 296 33ft 0kts
22-Mar-20 13:10 37.612829 -122.383174 296 33ft 0kts
22-Mar-20 13:11 37.612829 -122.383174 296 33ft 0kts
22-Mar-20 13:12 37.612829 -122.383174 296 33ft 0kts
22-Mar-20 13:13 37.612829 -122.383174 296 33ft 0kts
22-Mar-20 13:14 37.612829 -122.383174 296 33ft 0kts
22-Mar-20 13:15 37.612829 -122.383174 296 33ft 0kts
22-Mar-20 13:16 37.612829 -122.383174 296 33ft 0kts
22-Mar-20 13:17 37.612829 -122.383174 296 33ft 0kts
22-Mar-20 13:18 37.612829 -122.383174 296 33ft 0kts
22-Mar-20 13:19 37.612829 -122.383174 296 33ft 0kts
22-Mar-20 13:20 37.612829 -122.383174 296 33ft 0kts
22-Mar-20 13:21 37.612829 -122.383174 296 33ft 0kts
22-Mar-20 13:22 37.612829 -122.383174 296 33ft 0kts
22-Mar-20 13:23 37.612829 -122.383174 296 33ft 0kts
22-Mar-20 13:24 37.612829 -122.383174 296 33ft 0kts
22-Mar-20 13:25 37.612829 -122.383174 296 34ft 0kts
22-Mar-20 13:26 37.612829 -122.383174 296 34ft 0kts
22-Mar-20 13:27 37.612829 -122.383174 296 34ft 0kts
22-Mar-20 13:28 37.612626 -122.382652 296 33ft 2kts
22-Mar-20 13:29 37.612636 -122.382261 206 34ft 1kts
22-Mar-20 13:30 37.612647 -122.382255 207 34ft 0kts
22-Mar-20 13:31 37.612647 -122.382255 207 34ft 0kts
22-Mar-20 13:32 37.612174 -122.382561 208 33ft 10kts
22-Mar-20 13:33 37.606672 -122.384547 130 33ft 22kts
22-Mar-20 13:34 37.606828 -122.382022 84 31ft 0kts
22-Mar-20 13:35 37.606809 -122.381906 105 31ft 4kts
22-Mar-20 13:36 37.620216 -122.371827 28 97ft 166kts
22-Mar-20 13:37 37.653712 -122.336201 57 2942ft 167kts
22-Mar-20 13:38 37.679434 -122.287047 56 5323ft 171kts
22-Mar-20 13:39 37.706422 -122.235502 62 7452ft 176kts
22-Mar-20 13:41 37.743909 -122.190197 37 9312ft 194kts
22-Mar-20 13:42 37.790695 -122.148502 38 10670ft 232kts
22-Mar-20 13:43 37.850539 -122.094411 37 11311ft 287kts
22-Mar-20 13:44 37.910922 -122.022686 52 12350ft 301kts
22-Mar-20 13:45 37.966535 -121.940325 51 14251ft 312kts
22-Mar-20 13:46 38.024089 -121.855260 51 16277ft 324kts
22-Mar-20 13:47 38.083701 -121.766913 51 18298ft 337kts
22-Mar-20 13:48 38.145748 -121.674713 51 20305ft 349kts
22-Mar-20 13:49 38.209876 -121.579145 51 22303ft 362kts
22-Mar-20 13:50 38.276515 -121.479520 51 24310ft 375kts
22-Mar-20 13:51 38.344653 -121.376926 53 26307ft 382kts
22-Mar-20 13:52 38.398440 -121.284791 55 27698ft 393kts
22-Mar-20 13:53 38.465420 -121.169412 55 28992ft 412kts
22-Mar-20 13:54 38.535253 -121.049673 54 29964ft 437kts
22-Mar-20 13:55 38.610718 -120.921024 54 30972ft 459kts
22-Mar-20 13:56 38.688742 -120.788203 53 32198ft 472kts
22-Mar-20 13:57 38.768775 -120.651809 52 33413ft 483kts
22-Mar-20 13:58 38.850256 -120.512805 53 34591ft 493kts
22-Mar-20 13:58 38.920374 -120.393600 55 35060ft 511kts
22-Mar-20 14:00 39.015971 -120.239168 54 35025ft 435kts
22-Mar-20 14:01 39.092084 -120.115409 53 35030ft 446kts
22-Mar-20 14:02 39.168746 -119.990307 53 35048ft 444kts
22-Mar-20 14:02 39.232576 -119.885765 52 35040ft 445kts
22-Mar-20 14:03 39.308865 -119.760432 52 35031ft 445kts
22-Mar-20 14:05 39.397055 -119.614843 52 35028ft 441kts
22-Mar-20 14:05 39.460586 -119.509566 52 35028ft 446kts
22-Mar-20 14:06 39.536571 -119.383341 52 35043ft 444kts
22-Mar-20 14:07 39.611105 -119.258847 53 35045ft 440kts
22-Mar-20 14:08 39.686259 -119.132750 53 35041ft 444kts
22-Mar-20 14:09 39.761591 -119.005949 54 35046ft 447kts
22-Mar-20 14:10 39.839557 -118.874096 53 35055ft 473kts
22-Mar-20 14:11 39.912215 -118.731136 63 35063ft 475kts
22-Mar-20 14:12 39.973534 -118.579050 62 35061ft 473kts
22-Mar-20 14:13 40.035127 -118.427461 62 35055ft 474kts
22-Mar-20 14:14 40.095220 -118.278780 63 35061ft 468kts
22-Mar-20 14:15 40.156498 -118.126314 63 35054ft 474kts
22-Mar-20 14:16 40.211422 -117.970928 73 35053ft 473kts
22-Mar-20 14:17 40.249374 -117.805755 73 35055ft 473kts
22-Mar-20 14:18 40.287610 -117.641493 73 35045ft 472kts
22-Mar-20 14:19 40.325661 -117.476569 73 35042ft 473kts
22-Mar-20 14:20 40.363541 -117.311347 74 35037ft 474kts
22-Mar-20 14:21 40.401138 -117.146221 74 35038ft 473kts
22-Mar-20 14:22 40.438853 -116.979054 74 35036ft 491kts
22-Mar-20 14:23 40.478559 -116.802227 74 35034ft 513kts
22-Mar-20 14:24 40.518261 -116.623214 74 35043ft 509kts
22-Mar-20 14:25 40.557690 -116.444524 74 35039ft 510kts
22-Mar-20 14:26 40.577600 -116.261083 86 35049ft 506kts
22-Mar-20 14:27 40.591609 -116.077059 86 35050ft 506kts
22-Mar-20 14:28 40.605622 -115.892081 85 35046ft 495kts
22-Mar-20 14:29 40.618714 -115.715021 86 35060ft 487kts
22-Mar-20 14:30 40.631574 -115.536176 86 35060ft 489kts
22-Mar-20 14:31 40.643967 -115.360409 85 35026ft 478kts
22-Mar-20 14:32 40.656185 -115.184050 86 35027ft 485kts
22-Mar-20 14:33 40.668420 -115.003029 86 35073ft 510kts
22-Mar-20 14:34 40.680709 -114.817276 86 35150ft 508kts
22-Mar-20 14:35 40.692691 -114.631849 87 35164ft 511kts
22-Mar-20 14:36 40.702801 -114.443571 89 33767ft 521kts
22-Mar-20 14:37 40.709182 -114.260568 89 31227ft 515kts
22-Mar-20 14:38 40.715847 -114.074320 90 28635ft 503kts
22-Mar-20 14:39 40.721847 -113.893629 90 26090ft 486kts
22-Mar-20 14:40 40.727002 -113.719532 93 24165ft 451kts
22-Mar-20 14:41 40.726035 -113.565548 93 24159ft 398kts
22-Mar-20 14:42 40.725779 -113.416922 93 24157ft 405kts
22-Mar-20 14:43 40.725254 -113.273973 93 24017ft 407kts
22-Mar-20 14:44 40.724771 -113.146160 94 24004ft 402kts
22-Mar-20 14:45 40.723922 -112.998930 93 23828ft 397kts
22-Mar-20 14:46 40.722929 -112.852010 93 21657ft 404kts
22-Mar-20 14:47 40.721293 -112.703405 92 19511ft 405kts
22-Mar-20 14:48 40.719958 -112.555767 91 17436ft 398kts
22-Mar-20 14:49 40.737920 -112.419649 77 16752ft 351kts
22-Mar-20 14:50 40.758000 -112.298932 78 13446ft 325kts
22-Mar-20 14:51 40.765477 -112.194507 91 11991ft 241kts
22-Mar-20 14:52 40.741511 -112.119064 133 12011ft 263kts
22-Mar-20 14:53 40.668218 -112.082447 175 11172ft 284kts
22-Mar-20 14:54 40.613619 -112.031285 128 9033ft 240kts
22-Mar-20 14:55 40.575306 -111.959450 119 8213ft 236kts
22-Mar-20 14:56 40.608614 -111.918477 337 7460ft 216kts
22-Mar-20 14:57 40.663291 -111.949061 339 6333ft 211kts
22-Mar-20 14:58 40.720626 -111.966233 349 5772ft 213kts
22-Mar-20 14:59 40.774925 -111.973190 352 4258ft 161kts
22-Mar-20 15:00 40.786304 -111.975904 266 4237ft 0kts
22-Mar-20 15:01 40.788284 -111.977089 350 4237ft 19kts
22-Mar-20 15:02 40.789161 -111.977936 227 4237ft 0kts

Navigation Log

Ident Type
Flight plan parsing failed, navigation log unavailable